sensor_id;sensor_type;location;lat;lon;timestamp;P1;durP1;ratioP1;P2;durP2;ratioP2
47251;SDS011;32991;51.374;11.586;2023-04-09T00:01:41;64.70;;;44.83;;
47251;SDS011;32991;51.374;11.586;2023-04-09T00:04:07;63.65;;;42.50;;
47251;SDS011;32991;51.374;11.586;2023-04-09T00:06:34;63.40;;;44.10;;
47251;SDS011;32991;51.374;11.586;2023-04-09T00:09:01;64.70;;;43.97;;
47251;SDS011;32991;51.374;11.586;2023-04-09T00:11:27;59.38;;;41.53;;
47251;SDS011;32991;51.374;11.586;2023-04-09T00:13:54;48.13;;;35.40;;
47251;SDS011;32991;51.374;11.586;2023-04-09T00:16:20;44.45;;;34.92;;
47251;SDS011;32991;51.374;11.586;2023-04-09T00:18:47;44.63;;;32.60;;
47251;SDS011;32991;51.374;11.586;2023-04-09T00:21:13;46.83;;;34.28;;
47251;SDS011;32991;51.374;11.586;2023-04-09T00:23:41;44.70;;;33.90;;
47251;SDS011;32991;51.374;11.586;2023-04-09T00:26:08;43.03;;;27.25;;
47251;SDS011;32991;51.374;11.586;2023-04-09T00:28:36;47.78;;;34.38;;
47251;SDS011;32991;51.374;11.586;2023-04-09T00:31:04;48.13;;;35.05;;
47251;SDS011;32991;51.374;11.586;2023-04-09T00:33:31;43.85;;;25.25;;
47251;SDS011;32991;51.374;11.586;2023-04-09T00:35:57;45.97;;;34.15;;
47251;SDS011;32991;51.374;11.586;2023-04-09T00:38:24;50.80;;;34.22;;
47251;SDS011;32991;51.374;11.586;2023-04-09T00:40:51;41.88;;;24.77;;
47251;SDS011;32991;51.374;11.586;2023-04-09T00:43:17;43.47;;;25.08;;
47251;SDS011;32991;51.374;11.586;2023-04-09T00:45:44;43.15;;;30.15;;
47251;SDS011;32991;51.374;11.586;2023-04-09T00:48:13;50.45;;;34.70;;
47251;SDS011;32991;51.374;11.586;2023-04-09T00:50:41;50.85;;;25.60;;
47251;SDS011;32991;51.374;11.586;2023-04-09T00:53:08;50.50;;;34.72;;
47251;SDS011;32991;51.374;11.586;2023-04-09T00:55:35;50.20;;;26.98;;
47251;SDS011;32991;51.374;11.586;2023-04-09T00:58:05;45.85;;;25.38;;
47251;SDS011;32991;51.374;11.586;2023-04-09T01:00:31;48.55;;;34.42;;
47251;SDS011;32991;51.374;11.586;2023-04-09T01:02:58;48.22;;;30.08;;
47251;SDS011;32991;51.374;11.586;2023-04-09T01:05:28;46.83;;;33.67;;
47251;SDS011;32991;51.374;11.586;2023-04-09T01:10:42;38.95;;;21.77;;
47251;SDS011;32991;51.374;11.586;2023-04-09T01:16:09;39.97;;;23.42;;
47251;SDS011;32991;51.374;11.586;2023-04-09T01:18:48;48.75;;;35.10;;
47251;SDS011;32991;51.374;11.586;2023-04-09T01:21:19;42.67;;;24.98;;
47251;SDS011;32991;51.374;11.586;2023-04-09T01:27:03;44.80;;;24.70;;
47251;SDS011;32991;51.374;11.586;2023-04-09T01:29:40;45.47;;;23.80;;
47251;SDS011;32991;51.374;11.586;2023-04-09T01:32:10;48.13;;;28.55;;
47251;SDS011;32991;51.374;11.586;2023-04-09T01:34:37;44.88;;;25.27;;
47251;SDS011;32991;51.374;11.586;2023-04-09T01:37:04;49.35;;;33.42;;
47251;SDS011;32991;51.374;11.586;2023-04-09T01:39:31;48.35;;;26.15;;
47251;SDS011;32991;51.374;11.586;2023-04-09T01:41:58;50.42;;;36.60;;
47251;SDS011;32991;51.374;11.586;2023-04-09T01:44:26;49.60;;;26.98;;
47251;SDS011;32991;51.374;11.586;2023-04-09T01:46:53;52.65;;;37.72;;
47251;SDS011;32991;51.374;11.586;2023-04-09T01:49:20;50.92;;;27.95;;
47251;SDS011;32991;51.374;11.586;2023-04-09T01:51:47;47.05;;;26.20;;
47251;SDS011;32991;51.374;11.586;2023-04-09T01:54:14;51.88;;;34.65;;
47251;SDS011;32991;51.374;11.586;2023-04-09T01:56:45;46.95;;;27.48;;
47251;SDS011;32991;51.374;11.586;2023-04-09T01:59:13;53.35;;;37.90;;
47251;SDS011;32991;51.374;11.586;2023-04-09T02:01:42;51.08;;;27.25;;
47251;SDS011;32991;51.374;11.586;2023-04-09T02:04:20;44.17;;;26.33;;
47251;SDS011;32991;51.374;11.586;2023-04-09T02:06:54;54.90;;;28.30;;
47251;SDS011;32991;51.374;11.586;2023-04-09T02:09:35;47.65;;;27.65;;
47251;SDS011;32991;51.374;11.586;2023-04-09T02:12:03;51.75;;;35.88;;
47251;SDS011;32991;51.374;11.586;2023-04-09T02:14:31;53.70;;;28.58;;
47251;SDS011;32991;51.374;11.586;2023-04-09T02:16:59;51.25;;;28.48;;
47251;SDS011;32991;51.374;11.586;2023-04-09T02:19:42;52.22;;;28.25;;
47251;SDS011;32991;51.374;11.586;2023-04-09T02:22:10;54.75;;;27.75;;
47251;SDS011;32991;51.374;11.586;2023-04-09T02:24:37;53.08;;;28.73;;
47251;SDS011;32991;51.374;11.586;2023-04-09T02:27:05;52.95;;;29.65;;
47251;SDS011;32991;51.374;11.586;2023-04-09T02:29:32;59.50;;;40.63;;
47251;SDS011;32991;51.374;11.586;2023-04-09T02:31:59;54.58;;;27.35;;
47251;SDS011;32991;51.374;11.586;2023-04-09T02:34:26;53.17;;;29.65;;
47251;SDS011;32991;51.374;11.586;2023-04-09T02:36:53;52.97;;;29.60;;
47251;SDS011;32991;51.374;11.586;2023-04-09T02:39:19;54.28;;;30.25;;
47251;SDS011;32991;51.374;11.586;2023-04-09T02:41:46;54.28;;;36.70;;
47251;SDS011;32991;51.374;11.586;2023-04-09T02:44:12;50.50;;;27.10;;
47251;SDS011;32991;51.374;11.586;2023-04-09T02:46:39;50.92;;;27.35;;
47251;SDS011;32991;51.374;11.586;2023-04-09T02:49:06;48.70;;;26.85;;
47251;SDS011;32991;51.374;11.586;2023-04-09T02:51:33;48.00;;;26.67;;
47251;SDS011;32991;51.374;11.586;2023-04-09T02:54:01;55.88;;;30.38;;
47251;SDS011;32991;51.374;11.586;2023-04-09T02:56:28;58.13;;;38.17;;
47251;SDS011;32991;51.374;11.586;2023-04-09T02:58:55;47.85;;;26.65;;
47251;SDS011;32991;51.374;11.586;2023-04-09T03:01:21;49.92;;;29.20;;
47251;SDS011;32991;51.374;11.586;2023-04-09T03:03:48;54.38;;;28.70;;
47251;SDS011;32991;51.374;11.586;2023-04-09T03:06:14;56.38;;;29.60;;
47251;SDS011;32991;51.374;11.586;2023-04-09T03:08:41;62.50;;;32.10;;
47251;SDS011;32991;51.374;11.586;2023-04-09T03:11:07;53.70;;;29.48;;
47251;SDS011;32991;51.374;11.586;2023-04-09T03:13:34;55.67;;;32.30;;
47251;SDS011;32991;51.374;11.586;2023-04-09T03:16:00;63.22;;;42.05;;
47251;SDS011;32991;51.374;11.586;2023-04-09T03:18:27;55.83;;;29.50;;
47251;SDS011;32991;51.374;11.586;2023-04-09T03:20:53;63.95;;;37.35;;
47251;SDS011;32991;51.374;11.586;2023-04-09T03:23:20;56.72;;;29.40;;
47251;SDS011;32991;51.374;11.586;2023-04-09T03:25:47;60.47;;;31.48;;
47251;SDS011;32991;51.374;11.586;2023-04-09T03:28:15;53.85;;;29.13;;
47251;SDS011;32991;51.374;11.586;2023-04-09T03:30:45;57.95;;;41.28;;
47251;SDS011;32991;51.374;11.586;2023-04-09T03:33:13;60.08;;;30.40;;
47251;SDS011;32991;51.374;11.586;2023-04-09T03:35:52;56.03;;;29.35;;
47251;SDS011;32991;51.374;11.586;2023-04-09T03:38:35;61.03;;;35.17;;
47251;SDS011;32991;51.374;11.586;2023-04-09T03:41:07;58.55;;;30.38;;
47251;SDS011;32991;51.374;11.586;2023-04-09T03:43:33;53.97;;;29.50;;
47251;SDS011;32991;51.374;11.586;2023-04-09T03:46:01;57.03;;;31.00;;
47251;SDS011;32991;51.374;11.586;2023-04-09T03:48:28;59.05;;;31.60;;
47251;SDS011;32991;51.374;11.586;2023-04-09T03:50:56;59.60;;;30.45;;
47251;SDS011;32991;51.374;11.586;2023-04-09T03:53:31;59.35;;;30.75;;
47251;SDS011;32991;51.374;11.586;2023-04-09T03:56:02;56.70;;;29.38;;
47251;SDS011;32991;51.374;11.586;2023-04-09T03:58:29;58.33;;;30.25;;
47251;SDS011;32991;51.374;11.586;2023-04-09T04:00:57;58.92;;;29.38;;
47251;SDS011;32991;51.374;11.586;2023-04-09T04:03:35;62.08;;;31.27;;
47251;SDS011;32991;51.374;11.586;2023-04-09T04:06:10;62.17;;;29.23;;
47251;SDS011;32991;51.374;11.586;2023-04-09T04:08:48;54.45;;;28.02;;
47251;SDS011;32991;51.374;11.586;2023-04-09T04:11:16;58.08;;;30.33;;
47251;SDS011;32991;51.374;11.586;2023-04-09T04:13:43;59.35;;;30.70;;
47251;SDS011;32991;51.374;11.586;2023-04-09T04:16:09;59.83;;;31.50;;
47251;SDS011;32991;51.374;11.586;2023-04-09T04:18:38;59.45;;;28.70;;
47251;SDS011;32991;51.374;11.586;2023-04-09T04:21:10;60.30;;;31.55;;
47251;SDS011;32991;51.374;11.586;2023-04-09T04:23:39;58.53;;;29.08;;
47251;SDS011;32991;51.374;11.586;2023-04-09T04:26:18;61.25;;;30.05;;
47251;SDS011;32991;51.374;11.586;2023-04-09T04:28:45;66.68;;;31.77;;
47251;SDS011;32991;51.374;11.586;2023-04-09T04:31:22;60.85;;;30.48;;
47251;SDS011;32991;51.374;11.586;2023-04-09T04:33:49;72.25;;;31.00;;
47251;SDS011;32991;51.374;11.586;2023-04-09T04:36:17;64.18;;;30.80;;
47251;SDS011;32991;51.374;11.586;2023-04-09T04:38:49;68.32;;;29.55;;
47251;SDS011;32991;51.374;11.586;2023-04-09T04:41:31;61.03;;;28.88;;
47251;SDS011;32991;51.374;11.586;2023-04-09T04:44:21;54.67;;;28.17;;
47251;SDS011;32991;51.374;11.586;2023-04-09T04:46:52;63.58;;;29.45;;
47251;SDS011;32991;51.374;11.586;2023-04-09T04:49:20;63.80;;;30.45;;
47251;SDS011;32991;51.374;11.586;2023-04-09T04:51:46;62.03;;;29.48;;
47251;SDS011;32991;51.374;11.586;2023-04-09T04:54:14;70.82;;;31.88;;
47251;SDS011;32991;51.374;11.586;2023-04-09T04:56:48;68.57;;;29.65;;
47251;SDS011;32991;51.374;11.586;2023-04-09T04:59:23;69.95;;;32.15;;
47251;SDS011;32991;51.374;11.586;2023-04-09T05:02:16;58.90;;;28.55;;
47251;SDS011;32991;51.374;11.586;2023-04-09T05:05:03;65.63;;;32.30;;
47251;SDS011;32991;51.374;11.586;2023-04-09T05:07:35;65.57;;;31.05;;
47251;SDS011;32991;51.374;11.586;2023-04-09T05:10:03;62.35;;;31.73;;
47251;SDS011;32991;51.374;11.586;2023-04-09T05:12:36;62.25;;;29.70;;
47251;SDS011;32991;51.374;11.586;2023-04-09T05:15:03;62.00;;;30.83;;
47251;SDS011;32991;51.374;11.586;2023-04-09T05:17:29;58.42;;;31.35;;
47251;SDS011;32991;51.374;11.586;2023-04-09T05:19:56;61.83;;;33.00;;
47251;SDS011;32991;51.374;11.586;2023-04-09T05:22:34;62.00;;;30.88;;
47251;SDS011;32991;51.374;11.586;2023-04-09T05:25:02;63.35;;;43.40;;
47251;SDS011;32991;51.374;11.586;2023-04-09T05:27:29;58.88;;;31.17;;
47251;SDS011;32991;51.374;11.586;2023-04-09T05:29:59;57.97;;;42.33;;
47251;SDS011;32991;51.374;11.586;2023-04-09T05:32:26;58.63;;;39.90;;
47251;SDS011;32991;51.374;11.586;2023-04-09T05:34:53;54.90;;;40.58;;
47251;SDS011;32991;51.374;11.586;2023-04-09T05:37:20;53.22;;;40.47;;
47251;SDS011;32991;51.374;11.586;2023-04-09T05:39:50;55.63;;;40.20;;
47251;SDS011;32991;51.374;11.586;2023-04-09T05:42:16;55.60;;;40.63;;
47251;SDS011;32991;51.374;11.586;2023-04-09T05:44:54;54.15;;;39.92;;
47251;SDS011;32991;51.374;11.586;2023-04-09T05:47:22;50.10;;;38.35;;
47251;SDS011;32991;51.374;11.586;2023-04-09T05:50:09;50.20;;;38.78;;
47251;SDS011;32991;51.374;11.586;2023-04-09T05:52:36;49.67;;;37.65;;
47251;SDS011;32991;51.374;11.586;2023-04-09T05:55:03;46.97;;;35.55;;
47251;SDS011;32991;51.374;11.586;2023-04-09T05:57:42;44.97;;;35.35;;
47251;SDS011;32991;51.374;11.586;2023-04-09T06:00:11;45.30;;;34.35;;
47251;SDS011;32991;51.374;11.586;2023-04-09T06:02:46;46.88;;;35.83;;
47251;SDS011;32991;51.374;11.586;2023-04-09T06:05:13;53.47;;;37.95;;
47251;SDS011;32991;51.374;11.586;2023-04-09T06:07:39;52.80;;;37.55;;
47251;SDS011;32991;51.374;11.586;2023-04-09T06:10:06;46.63;;;36.35;;
47251;SDS011;32991;51.374;11.586;2023-04-09T06:12:34;49.55;;;36.25;;
47251;SDS011;32991;51.374;11.586;2023-04-09T06:15:02;45.22;;;35.22;;
47251;SDS011;32991;51.374;11.586;2023-04-09T06:17:30;47.30;;;36.90;;
47251;SDS011;32991;51.374;11.586;2023-04-09T06:19:56;49.13;;;38.40;;
47251;SDS011;32991;51.374;11.586;2023-04-09T06:22:23;47.10;;;36.03;;
47251;SDS011;32991;51.374;11.586;2023-04-09T06:24:49;47.47;;;36.03;;
47251;SDS011;32991;51.374;11.586;2023-04-09T06:27:15;47.83;;;36.25;;
47251;SDS011;32991;51.374;11.586;2023-04-09T06:29:44;43.42;;;34.63;;
47251;SDS011;32991;51.374;11.586;2023-04-09T06:32:10;46.97;;;36.65;;
47251;SDS011;32991;51.374;11.586;2023-04-09T06:34:37;46.40;;;36.92;;
47251;SDS011;32991;51.374;11.586;2023-04-09T06:37:03;42.47;;;34.65;;
47251;SDS011;32991;51.374;11.586;2023-04-09T06:39:30;44.65;;;34.60;;
47251;SDS011;32991;51.374;11.586;2023-04-09T06:41:56;43.78;;;34.67;;
47251;SDS011;32991;51.374;11.586;2023-04-09T06:44:34;40.70;;;32.88;;
47251;SDS011;32991;51.374;11.586;2023-04-09T06:47:01;41.22;;;34.08;;
47251;SDS011;32991;51.374;11.586;2023-04-09T06:49:28;42.35;;;34.60;;
47251;SDS011;32991;51.374;11.586;2023-04-09T06:51:54;41.00;;;34.10;;
47251;SDS011;32991;51.374;11.586;2023-04-09T06:54:21;38.67;;;33.65;;
47251;SDS011;32991;51.374;11.586;2023-04-09T06:56:47;39.60;;;32.50;;
47251;SDS011;32991;51.374;11.586;2023-04-09T06:59:14;39.75;;;32.65;;
47251;SDS011;32991;51.374;11.586;2023-04-09T07:01:41;35.95;;;30.45;;
47251;SDS011;32991;51.374;11.586;2023-04-09T07:04:08;37.78;;;31.40;;
47251;SDS011;32991;51.374;11.586;2023-04-09T07:06:35;38.25;;;32.67;;
47251;SDS011;32991;51.374;11.586;2023-04-09T07:09:01;39.80;;;32.38;;
47251;SDS011;32991;51.374;11.586;2023-04-09T07:11:28;36.90;;;30.23;;
47251;SDS011;32991;51.374;11.586;2023-04-09T07:13:54;38.03;;;30.48;;
47251;SDS011;32991;51.374;11.586;2023-04-09T07:16:22;39.03;;;29.75;;
47251;SDS011;32991;51.374;11.586;2023-04-09T07:18:48;35.13;;;29.17;;
47251;SDS011;32991;51.374;11.586;2023-04-09T07:21:15;34.03;;;28.85;;
47251;SDS011;32991;51.374;11.586;2023-04-09T07:23:42;34.78;;;29.20;;
47251;SDS011;32991;51.374;11.586;2023-04-09T07:26:08;32.75;;;26.02;;
47251;SDS011;32991;51.374;11.586;2023-04-09T07:28:35;32.13;;;27.88;;
47251;SDS011;32991;51.374;11.586;2023-04-09T07:31:02;30.52;;;26.73;;
47251;SDS011;32991;51.374;11.586;2023-04-09T07:33:29;31.42;;;27.02;;
47251;SDS011;32991;51.374;11.586;2023-04-09T07:35:55;30.50;;;26.55;;
47251;SDS011;32991;51.374;11.586;2023-04-09T07:38:22;31.48;;;26.80;;
47251;SDS011;32991;51.374;11.586;2023-04-09T07:40:49;30.55;;;25.88;;
47251;SDS011;32991;51.374;11.586;2023-04-09T07:43:16;30.45;;;26.02;;
47251;SDS011;32991;51.374;11.586;2023-04-09T07:45:43;30.33;;;25.38;;
47251;SDS011;32991;51.374;11.586;2023-04-09T07:48:09;29.48;;;25.33;;
47251;SDS011;32991;51.374;11.586;2023-04-09T07:50:36;32.55;;;26.70;;
47251;SDS011;32991;51.374;11.586;2023-04-09T07:53:03;31.33;;;27.23;;
47251;SDS011;32991;51.374;11.586;2023-04-09T07:55:29;32.60;;;26.65;;
47251;SDS011;32991;51.374;11.586;2023-04-09T07:57:56;32.63;;;27.05;;
47251;SDS011;32991;51.374;11.586;2023-04-09T08:00:22;33.75;;;28.17;;
47251;SDS011;32991;51.374;11.586;2023-04-09T08:02:49;40.63;;;34.58;;
47251;SDS011;32991;51.374;11.586;2023-04-09T08:05:16;34.90;;;29.17;;
47251;SDS011;32991;51.374;11.586;2023-04-09T08:07:42;31.60;;;26.52;;
47251;SDS011;32991;51.374;11.586;2023-04-09T08:10:09;29.95;;;26.45;;
47251;SDS011;32991;51.374;11.586;2023-04-09T08:12:40;34.20;;;26.67;;
47251;SDS011;32991;51.374;11.586;2023-04-09T08:15:07;32.45;;;26.98;;
47251;SDS011;32991;51.374;11.586;2023-04-09T08:17:34;31.50;;;26.42;;
47251;SDS011;32991;51.374;11.586;2023-04-09T08:20:03;29.73;;;26.48;;
47251;SDS011;32991;51.374;11.586;2023-04-09T08:22:30;32.75;;;27.90;;
47251;SDS011;32991;51.374;11.586;2023-04-09T08:24:56;30.33;;;26.05;;
47251;SDS011;32991;51.374;11.586;2023-04-09T08:27:26;28.05;;;24.98;;
47251;SDS011;32991;51.374;11.586;2023-04-09T08:29:53;28.50;;;25.02;;
47251;SDS011;32991;51.374;11.586;2023-04-09T08:32:19;30.65;;;25.45;;
47251;SDS011;32991;51.374;11.586;2023-04-09T08:34:46;26.75;;;23.90;;
47251;SDS011;32991;51.374;11.586;2023-04-09T08:37:13;28.98;;;24.70;;
47251;SDS011;32991;51.374;11.586;2023-04-09T08:39:39;28.85;;;25.35;;
47251;SDS011;32991;51.374;11.586;2023-04-09T08:42:06;28.65;;;25.55;;
47251;SDS011;32991;51.374;11.586;2023-04-09T08:44:33;29.25;;;25.77;;
47251;SDS011;32991;51.374;11.586;2023-04-09T08:46:59;32.10;;;26.50;;
47251;SDS011;32991;51.374;11.586;2023-04-09T08:49:26;29.52;;;25.60;;
47251;SDS011;32991;51.374;11.586;2023-04-09T08:51:53;28.05;;;25.05;;
47251;SDS011;32991;51.374;11.586;2023-04-09T08:54:19;29.38;;;25.50;;
47251;SDS011;32991;51.374;11.586;2023-04-09T08:56:46;29.55;;;24.92;;
47251;SDS011;32991;51.374;11.586;2023-04-09T08:59:16;29.00;;;24.55;;
47251;SDS011;32991;51.374;11.586;2023-04-09T09:01:45;29.20;;;25.40;;
47251;SDS011;32991;51.374;11.586;2023-04-09T09:04:17;28.50;;;25.10;;
47251;SDS011;32991;51.374;11.586;2023-04-09T09:06:44;26.98;;;24.02;;
47251;SDS011;32991;51.374;11.586;2023-04-09T09:09:12;29.20;;;25.48;;
47251;SDS011;32991;51.374;11.586;2023-04-09T09:11:40;29.80;;;26.13;;
47251;SDS011;32991;51.374;11.586;2023-04-09T09:14:14;31.30;;;26.20;;
47251;SDS011;32991;51.374;11.586;2023-04-09T09:16:42;29.63;;;26.48;;
47251;SDS011;32991;51.374;11.586;2023-04-09T09:21:59;36.55;;;26.23;;
47251;SDS011;32991;51.374;11.586;2023-04-09T09:24:28;29.52;;;26.00;;
47251;SDS011;32991;51.374;11.586;2023-04-09T09:26:55;31.63;;;28.15;;
47251;SDS011;32991;51.374;11.586;2023-04-09T09:29:24;33.03;;;28.27;;
47251;SDS011;32991;51.374;11.586;2023-04-09T09:31:52;30.88;;;27.58;;
47251;SDS011;32991;51.374;11.586;2023-04-09T09:34:19;30.85;;;27.55;;
47251;SDS011;32991;51.374;11.586;2023-04-09T09:36:46;30.67;;;27.40;;
47251;SDS011;32991;51.374;11.586;2023-04-09T09:39:13;29.55;;;25.50;;
47251;SDS011;32991;51.374;11.586;2023-04-09T09:41:42;30.63;;;27.33;;
47251;SDS011;32991;51.374;11.586;2023-04-09T09:44:10;30.00;;;26.80;;
47251;SDS011;32991;51.374;11.586;2023-04-09T09:46:39;27.42;;;24.52;;
47251;SDS011;32991;51.374;11.586;2023-04-09T09:49:07;29.90;;;26.25;;
47251;SDS011;32991;51.374;11.586;2023-04-09T09:51:35;29.23;;;26.13;;
47251;SDS011;32991;51.374;11.586;2023-04-09T09:54:02;30.20;;;26.98;;
47251;SDS011;32991;51.374;11.586;2023-04-09T09:56:30;30.73;;;27.50;;
47251;SDS011;32991;51.374;11.586;2023-04-09T09:59:00;30.35;;;27.15;;
47251;SDS011;32991;51.374;11.586;2023-04-09T10:01:36;30.48;;;27.30;;
47251;SDS011;32991;51.374;11.586;2023-04-09T10:04:03;29.27;;;26.17;;
47251;SDS011;32991;51.374;11.586;2023-04-09T10:06:32;30.25;;;27.23;;
47251;SDS011;32991;51.374;11.586;2023-04-09T10:09:00;30.27;;;27.08;;
47251;SDS011;32991;51.374;11.586;2023-04-09T10:11:30;29.80;;;26.70;;
47251;SDS011;32991;51.374;11.586;2023-04-09T10:13:58;30.45;;;27.42;;
47251;SDS011;32991;51.374;11.586;2023-04-09T10:16:25;34.55;;;31.05;;
47251;SDS011;32991;51.374;11.586;2023-04-09T10:18:56;30.67;;;27.58;;
47251;SDS011;32991;51.374;11.586;2023-04-09T10:21:25;30.42;;;27.35;;
47251;SDS011;32991;51.374;11.586;2023-04-09T10:23:53;31.42;;;28.23;;
47251;SDS011;32991;51.374;11.586;2023-04-09T10:26:20;30.13;;;27.05;;
47251;SDS011;32991;51.374;11.586;2023-04-09T10:29:05;30.30;;;27.23;;
47251;SDS011;32991;51.374;11.586;2023-04-09T10:31:52;32.65;;;29.25;;
47251;SDS011;32991;51.374;11.586;2023-04-09T10:34:25;32.72;;;29.40;;
47251;SDS011;32991;51.374;11.586;2023-04-09T10:36:56;32.25;;;28.95;;
47251;SDS011;32991;51.374;11.586;2023-04-09T10:39:25;30.13;;;27.13;;
47251;SDS011;32991;51.374;11.586;2023-04-09T10:41:53;30.17;;;26.98;;
47251;SDS011;32991;51.374;11.586;2023-04-09T10:44:21;30.38;;;27.20;;
47251;SDS011;32991;51.374;11.586;2023-04-09T10:46:51;29.17;;;26.30;;
47251;SDS011;32991;51.374;11.586;2023-04-09T10:49:20;29.85;;;26.77;;
47251;SDS011;32991;51.374;11.586;2023-04-09T10:52:00;29.83;;;26.75;;
47251;SDS011;32991;51.374;11.586;2023-04-09T10:59:32;28.45;;;25.60;;
47251;SDS011;32991;51.374;11.586;2023-04-09T11:02:03;28.98;;;25.95;;
47251;SDS011;32991;51.374;11.586;2023-04-09T11:04:41;30.02;;;26.92;;
47251;SDS011;32991;51.374;11.586;2023-04-09T11:07:32;29.60;;;26.50;;
47251;SDS011;32991;51.374;11.586;2023-04-09T11:10:00;30.48;;;27.33;;
47251;SDS011;32991;51.374;11.586;2023-04-09T11:12:27;31.52;;;28.33;;
47251;SDS011;32991;51.374;11.586;2023-04-09T11:14:53;31.23;;;27.83;;
47251;SDS011;32991;51.374;11.586;2023-04-09T11:17:20;29.38;;;26.40;;
47251;SDS011;32991;51.374;11.586;2023-04-09T11:19:46;29.17;;;26.08;;
47251;SDS011;32991;51.374;11.586;2023-04-09T11:22:13;28.13;;;25.33;;
47251;SDS011;32991;51.374;11.586;2023-04-09T11:24:40;27.90;;;25.00;;
47251;SDS011;32991;51.374;11.586;2023-04-09T11:27:07;28.52;;;25.73;;
47251;SDS011;32991;51.374;11.586;2023-04-09T11:29:34;28.38;;;25.38;;
47251;SDS011;32991;51.374;11.586;2023-04-09T11:32:01;27.33;;;24.52;;
47251;SDS011;32991;51.374;11.586;2023-04-09T11:34:30;26.55;;;23.75;;
47251;SDS011;32991;51.374;11.586;2023-04-09T11:36:57;26.35;;;23.60;;
47251;SDS011;32991;51.374;11.586;2023-04-09T11:39:25;25.98;;;23.35;;
47251;SDS011;32991;51.374;11.586;2023-04-09T11:41:52;26.42;;;23.83;;
47251;SDS011;32991;51.374;11.586;2023-04-09T11:44:19;25.33;;;22.63;;
47251;SDS011;32991;51.374;11.586;2023-04-09T11:46:46;26.80;;;24.05;;
47251;SDS011;32991;51.374;11.586;2023-04-09T11:49:14;26.13;;;23.42;;
47251;SDS011;32991;51.374;11.586;2023-04-09T11:51:41;25.50;;;22.90;;
47251;SDS011;32991;51.374;11.586;2023-04-09T11:54:08;24.35;;;21.95;;
47251;SDS011;32991;51.374;11.586;2023-04-09T11:56:37;24.80;;;22.33;;
47251;SDS011;32991;51.374;11.586;2023-04-09T11:59:03;26.38;;;23.67;;
47251;SDS011;32991;51.374;11.586;2023-04-09T12:01:33;24.30;;;21.70;;
47251;SDS011;32991;51.374;11.586;2023-04-09T12:04:00;25.00;;;22.55;;
47251;SDS011;32991;51.374;11.586;2023-04-09T12:06:26;27.05;;;24.13;;
47251;SDS011;32991;51.374;11.586;2023-04-09T12:08:57;28.17;;;25.23;;
47251;SDS011;32991;51.374;11.586;2023-04-09T12:11:28;119.28;;;107.32;;
47251;SDS011;32991;51.374;11.586;2023-04-09T12:14:00;24.03;;;21.60;;
47251;SDS011;32991;51.374;11.586;2023-04-09T12:16:31;23.55;;;21.08;;
47251;SDS011;32991;51.374;11.586;2023-04-09T12:19:06;23.75;;;21.33;;
47251;SDS011;32991;51.374;11.586;2023-04-09T12:21:49;26.08;;;23.27;;
47251;SDS011;32991;51.374;11.586;2023-04-09T12:24:23;23.10;;;20.70;;
47251;SDS011;32991;51.374;11.586;2023-04-09T12:26:51;24.33;;;21.33;;
47251;SDS011;32991;51.374;11.586;2023-04-09T12:29:18;23.42;;;21.02;;
47251;SDS011;32991;51.374;11.586;2023-04-09T12:31:45;23.25;;;20.95;;
47251;SDS011;32991;51.374;11.586;2023-04-09T12:34:12;23.23;;;20.98;;
47251;SDS011;32991;51.374;11.586;2023-04-09T12:36:39;22.73;;;20.42;;
47251;SDS011;32991;51.374;11.586;2023-04-09T12:39:08;22.85;;;20.55;;
47251;SDS011;32991;51.374;11.586;2023-04-09T12:41:35;22.23;;;19.85;;
47251;SDS011;32991;51.374;11.586;2023-04-09T12:44:02;23.50;;;21.10;;
47251;SDS011;32991;51.374;11.586;2023-04-09T12:46:29;94.47;;;67.20;;
47251;SDS011;32991;51.374;11.586;2023-04-09T12:48:57;35.63;;;30.73;;
47251;SDS011;32991;51.374;11.586;2023-04-09T12:51:24;21.50;;;18.98;;
47251;SDS011;32991;51.374;11.586;2023-04-09T12:53:51;20.55;;;18.48;;
47251;SDS011;32991;51.374;11.586;2023-04-09T12:56:18;18.42;;;16.50;;
47251;SDS011;32991;51.374;11.586;2023-04-09T12:58:44;19.65;;;17.73;;
47251;SDS011;32991;51.374;11.586;2023-04-09T13:01:11;91.25;;;69.43;;
47251;SDS011;32991;51.374;11.586;2023-04-09T13:03:37;30.63;;;25.15;;
47251;SDS011;32991;51.374;11.586;2023-04-09T13:06:06;19.77;;;17.73;;
47251;SDS011;32991;51.374;11.586;2023-04-09T13:08:33;21.00;;;18.90;;
47251;SDS011;32991;51.374;11.586;2023-04-09T13:10:59;19.92;;;17.38;;
47251;SDS011;32991;51.374;11.586;2023-04-09T13:13:26;19.90;;;17.88;;
47251;SDS011;32991;51.374;11.586;2023-04-09T13:15:53;19.83;;;17.75;;
47251;SDS011;32991;51.374;11.586;2023-04-09T13:18:20;19.42;;;17.42;;
47251;SDS011;32991;51.374;11.586;2023-04-09T13:20:47;17.83;;;16.10;;
47251;SDS011;32991;51.374;11.586;2023-04-09T13:23:13;18.35;;;16.45;;
47251;SDS011;32991;51.374;11.586;2023-04-09T13:25:40;18.02;;;16.20;;
47251;SDS011;32991;51.374;11.586;2023-04-09T13:28:06;24.08;;;21.05;;
47251;SDS011;32991;51.374;11.586;2023-04-09T13:30:33;17.92;;;16.13;;
47251;SDS011;32991;51.374;11.586;2023-04-09T13:32:59;20.02;;;17.52;;
47251;SDS011;32991;51.374;11.586;2023-04-09T13:35:26;17.65;;;15.75;;
47251;SDS011;32991;51.374;11.586;2023-04-09T13:37:53;16.48;;;14.77;;
47251;SDS011;32991;51.374;11.586;2023-04-09T13:40:19;16.08;;;14.38;;
47251;SDS011;32991;51.374;11.586;2023-04-09T13:42:46;17.30;;;15.50;;
47251;SDS011;32991;51.374;11.586;2023-04-09T13:45:12;18.23;;;16.42;;
47251;SDS011;32991;51.374;11.586;2023-04-09T13:47:39;18.33;;;16.52;;
47251;SDS011;32991;51.374;11.586;2023-04-09T13:50:06;16.63;;;14.93;;
47251;SDS011;32991;51.374;11.586;2023-04-09T13:52:35;17.70;;;15.85;;
47251;SDS011;32991;51.374;11.586;2023-04-09T13:55:01;17.38;;;15.57;;
47251;SDS011;32991;51.374;11.586;2023-04-09T13:57:29;16.73;;;15.02;;
47251;SDS011;32991;51.374;11.586;2023-04-09T13:59:55;17.25;;;15.45;;
47251;SDS011;32991;51.374;11.586;2023-04-09T14:02:22;17.20;;;15.50;;
47251;SDS011;32991;51.374;11.586;2023-04-09T14:04:49;16.90;;;15.20;;
47251;SDS011;32991;51.374;11.586;2023-04-09T14:07:15;17.42;;;15.63;;
47251;SDS011;32991;51.374;11.586;2023-04-09T14:09:42;19.00;;;16.33;;
47251;SDS011;32991;51.374;11.586;2023-04-09T14:12:09;17.30;;;15.50;;
47251;SDS011;32991;51.374;11.586;2023-04-09T14:14:35;18.08;;;16.27;;
47251;SDS011;32991;51.374;11.586;2023-04-09T14:17:02;17.27;;;15.48;;
47251;SDS011;32991;51.374;11.586;2023-04-09T14:19:28;18.65;;;16.67;;
47251;SDS011;32991;51.374;11.586;2023-04-09T14:21:55;16.30;;;14.57;;
47251;SDS011;32991;51.374;11.586;2023-04-09T14:24:22;16.95;;;15.15;;
47251;SDS011;32991;51.374;11.586;2023-04-09T14:26:49;18.42;;;16.30;;
47251;SDS011;32991;51.374;11.586;2023-04-09T14:29:18;17.63;;;15.80;;
47251;SDS011;32991;51.374;11.586;2023-04-09T14:31:45;18.38;;;15.82;;
47251;SDS011;32991;51.374;11.586;2023-04-09T14:34:12;18.23;;;16.40;;